Time;durP1;ratioP1;P1;durP2;ratioP2;P2;SDS_P1;SDS_P2;PMS_P1;PMS_P2;Temp;Humidity;BMP_temperature;BMP_pressure;BME280_temperature;BME280_humidity;BME280_pressure;Samples;Min_cycle;Max_cycle;Signal;HPM_P1;HPM_P2
2023/06/26 00:01:43;;;;;;;1999.90;999.90;;;24.40;67.00;;;;;;5051218;28;20023;-73
2023/06/26 00:04:14;;;;;;;1999.90;999.90;;;24.30;67.10;;;;;;5061478;28;20548;-72
2023/06/26 00:06:42;;;;;;;1999.90;999.90;;;24.30;66.90;;;;;;5054856;28;20064;-70
2023/06/26 00:09:09;;;;;;;1999.90;999.90;;;24.60;66.60;;;;;;5054069;28;20020;-70
2023/06/26 00:11:37;;;;;;;1999.90;999.90;;;24.40;66.80;;;;;;5052912;28;20577;-72
2023/06/26 00:14:04;;;;;;;1999.90;999.90;;;24.20;66.80;;;;;;5054559;28;20036;-71
2023/06/26 00:16:31;;;;;;;1999.90;999.90;;;24.10;67.10;;;;;;5055066;28;20040;-72
2023/06/26 00:19:00;;;;;;;1999.90;999.90;;;24.10;67.10;;;;;;5051730;28;20024;-71
2023/06/26 00:21:28;;;;;;;1999.90;999.90;;;24.40;67.30;;;;;;5068342;28;20082;-72
2023/06/26 00:23:55;;;;;;;1999.90;999.90;;;24.40;66.80;;;;;;5056800;28;20029;-71
2023/06/26 00:26:24;;;;;;;1999.90;999.90;;;24.50;67.30;;;;;;5052063;28;20044;-72
2023/06/26 00:28:51;;;;;;;1999.90;999.90;;;25.00;66.90;;;;;;5056100;28;20029;-73
2023/06/26 00:31:18;;;;;;;1999.90;999.90;;;25.40;66.50;;;;;;5052462;28;20037;-71
2023/06/26 00:33:46;;;;;;;1999.90;999.90;;;25.70;65.60;;;;;;5050359;28;20494;-70
2023/06/26 00:36:14;;;;;;;1999.90;999.90;;;25.70;65.80;;;;;;5050941;28;20043;-72
2023/06/26 00:38:41;;;;;;;1999.90;999.90;;;25.70;66.30;;;;;;5051966;28;20530;-72
2023/06/26 00:41:12;;;;;;;1999.90;999.90;;;25.90;66.10;;;;;;5050375;28;20043;-72
2023/06/26 00:43:40;;;;;;;1999.90;999.90;;;26.00;65.70;;;;;;5058988;28;20474;-71
2023/06/26 00:46:11;;;;;;;1999.90;999.90;;;26.10;65.50;;;;;;5046193;28;20165;-71
2023/06/26 00:48:39;;;;;;;1999.90;999.90;;;25.90;65.30;;;;;;5053430;28;20376;-72
2023/06/26 00:51:07;;;;;;;1999.90;999.90;;;25.90;65.50;;;;;;5053520;28;20043;-71
2023/06/26 00:53:34;;;;;;;1999.90;999.90;;;25.60;65.40;;;;;;5050650;28;20021;-73
2023/06/26 00:56:07;;;;;;;1999.90;999.90;;;25.50;65.90;;;;;;5047441;28;20025;-72
2023/06/26 00:58:34;;;;;;;1999.90;999.90;;;25.60;65.90;;;;;;5054143;28;20109;-72
2023/06/26 01:01:02;;;;;;;1999.90;999.90;;;25.60;66.60;;;;;;5055795;28;20048;-72
2023/06/26 01:03:29;;;;;;;1999.90;999.90;;;25.80;66.40;;;;;;5059928;28;20088;-70
2023/06/26 01:05:59;;;;;;;1999.90;999.90;;;26.10;65.40;;;;;;5053495;28;20033;-71
2023/06/26 01:08:28;;;;;;;1999.90;999.90;;;25.90;65.40;;;;;;5060322;28;20024;-73
2023/06/26 01:10:55;;;;;;;1999.90;999.90;;;26.00;65.70;;;;;;5049855;28;20033;-72
2023/06/26 01:13:26;;;;;;;1999.90;999.90;;;26.10;66.10;;;;;;5054610;28;20052;-73
2023/06/26 01:15:54;;;;;;;1999.90;999.90;;;25.40;65.50;;;;;;5048323;28;20432;-72
2023/06/26 01:18:22;;;;;;;1999.90;999.90;;;25.50;66.10;;;;;;5054150;28;20036;-72
2023/06/26 01:20:49;;;;;;;1999.90;999.90;;;25.40;65.60;;;;;;5050892;28;20036;-71
2023/06/26 01:23:49;;;;;;;1999.90;999.90;;;25.20;65.80;;;;;;5058792;28;20555;-73
2023/06/26 01:26:22;;;;;;;1999.90;999.90;;;25.60;66.20;;;;;;5056633;28;20120;-72
2023/06/26 01:28:56;;;;;;;1999.90;999.90;;;25.50;65.80;;;;;;5056717;28;20041;-73
2023/06/26 01:31:24;;;;;;;1999.90;999.90;;;25.40;65.80;;;;;;5060690;28;20032;-72
2023/06/26 01:33:52;;;;;;;1999.90;999.90;;;25.30;66.70;;;;;;5055176;28;20431;-72
2023/06/26 01:36:20;;;;;;;1999.90;999.90;;;25.00;66.20;;;;;;5059447;28;20238;-71
2023/06/26 01:38:47;;;;;;;1999.90;999.90;;;25.10;66.50;;;;;;5051906;28;20811;-71
2023/06/26 01:41:16;;;;;;;1999.90;999.90;;;24.90;66.20;;;;;;5051154;28;20119;-71
2023/06/26 01:44:08;;;;;;;1999.90;999.90;;;24.80;67.00;;;;;;5059371;28;20135;-71
2023/06/26 01:46:58;;;;;;;1999.90;999.90;;;25.30;67.50;;;;;;5048452;28;20029;-70
2023/06/26 01:49:32;;;;;;;1999.90;999.90;;;25.40;66.40;;;;;;5061048;28;20059;-72
2023/06/26 01:52:20;;;;;;;1999.90;999.90;;;25.30;66.50;;;;;;5057910;28;20388;-72
2023/06/26 01:55:13;;;;;;;1999.90;999.90;;;25.30;66.10;;;;;;5058318;28;20067;-72
2023/06/26 01:57:42;;;;;;;1999.90;999.90;;;25.40;66.50;;;;;;5058609;28;20013;-71
2023/06/26 02:00:11;;;;;;;1999.90;999.90;;;25.60;66.60;;;;;;5055717;28;20041;-70
2023/06/26 02:02:38;;;;;;;1999.90;999.90;;;25.70;66.00;;;;;;5050549;28;20482;-70
2023/06/26 02:05:06;;;;;;;1999.90;999.90;;;25.40;66.00;;;;;;5039088;28;21007;-69
2023/06/26 02:07:33;;;;;;;1999.90;999.90;;;24.80;66.10;;;;;;5053807;28;20017;-69
2023/06/26 02:10:00;;;;;;;1999.90;999.90;;;24.50;67.40;;;;;;5054730;28;20356;-72
2023/06/26 02:12:28;;;;;;;1999.90;999.90;;;24.60;66.90;;;;;;5048916;28;20048;-72
2023/06/26 02:14:55;;;;;;;1999.90;999.90;;;24.80;66.80;;;;;;5049259;28;20037;-72
2023/06/26 02:17:24;;;;;;;1999.90;999.90;;;25.00;66.50;;;;;;5041785;28;20033;-69
2023/06/26 02:19:51;;;;;;;1999.90;999.90;;;25.30;66.40;;;;;;5041802;28;20037;-70
2023/06/26 02:22:19;;;;;;;1999.90;999.90;;;25.80;66.50;;;;;;5062643;28;20057;-71
2023/06/26 02:24:46;;;;;;;1999.90;999.90;;;25.00;65.60;;;;;;5049094;28;20128;-71
2023/06/26 02:27:14;;;;;;;1999.90;999.90;;;24.40;67.20;;;;;;5052139;28;20087;-72
2023/06/26 02:29:42;;;;;;;1999.90;999.90;;;24.10;67.80;;;;;;5055029;28;20502;-72
2023/06/26 02:32:10;;;;;;;1999.90;999.90;;;23.60;68.30;;;;;;5051811;28;20440;-71
2023/06/26 02:34:37;;;;;;;1999.90;999.90;;;23.60;68.40;;;;;;5069196;28;20020;-73
2023/06/26 02:37:07;;;;;;;1999.90;999.90;;;23.60;67.90;;;;;;5055641;28;20021;-72
2023/06/26 02:39:35;;;;;;;1999.90;999.90;;;23.90;68.00;;;;;;5055175;28;20032;-71
2023/06/26 02:42:02;;;;;;;1999.90;999.90;;;24.00;68.00;;;;;;5060033;28;20466;-70
2023/06/26 02:44:30;;;;;;;1999.90;999.90;;;24.00;67.80;;;;;;5055509;28;20037;-72
2023/06/26 02:46:57;;;;;;;1999.90;999.90;;;23.70;67.40;;;;;;5053398;28;20034;-69
2023/06/26 02:49:24;;;;;;;1999.90;999.90;;;23.30;67.50;;;;;;5050066;28;20047;-71
2023/06/26 02:51:51;;;;;;;1999.90;999.90;;;22.20;69.30;;;;;;5051610;28;20040;-71
2023/06/26 02:54:19;;;;;;;1999.90;999.90;;;22.10;69.90;;;;;;5058356;28;20116;-71
2023/06/26 02:56:46;;;;;;;1999.90;999.90;;;22.20;69.20;;;;;;5053382;28;20024;-70
2023/06/26 02:59:13;;;;;;;1999.90;999.90;;;22.20;69.20;;;;;;5056018;28;20031;-71
2023/06/26 03:01:41;;;;;;;1999.90;999.90;;;22.00;69.30;;;;;;5055498;28;20075;-71
2023/06/26 03:04:08;;;;;;;1999.90;999.90;;;22.10;69.70;;;;;;5048555;28;20060;-72
2023/06/26 03:06:36;;;;;;;1999.90;999.90;;;21.90;69.70;;;;;;5044709;28;20483;-72
2023/06/26 03:09:03;;;;;;;1999.90;999.90;;;22.00;69.20;;;;;;5052327;28;20265;-72
2023/06/26 03:11:30;;;;;;;1999.90;999.90;;;22.00;69.50;;;;;;5050016;28;20087;-72
2023/06/26 03:13:58;;;;;;;1999.90;999.90;;;21.90;69.70;;;;;;5052188;28;20059;-73
2023/06/26 03:16:26;;;;;;;1999.90;999.90;;;21.60;70.20;;;;;;5058054;28;20104;-71
2023/06/26 03:18:53;;;;;;;1999.90;999.90;;;21.70;70.50;;;;;;5066318;28;20043;-72
2023/06/26 03:21:21;;;;;;;1999.90;999.90;;;21.50;70.30;;;;;;5052456;28;20031;-71
2023/06/26 03:23:48;;;;;;;1999.90;999.90;;;21.30;70.70;;;;;;5053135;28;20037;-73
2023/06/26 03:26:15;;;;;;;1999.90;999.90;;;21.10;70.80;;;;;;5054969;28;20031;-71
2023/06/26 03:28:43;;;;;;;1999.90;999.90;;;20.90;71.20;;;;;;5050666;28;20122;-71
2023/06/26 03:31:10;;;;;;;1999.90;999.90;;;20.70;72.00;;;;;;5050726;28;20040;-71
2023/06/26 03:33:38;;;;;;;1999.90;999.90;;;20.50;72.20;;;;;;5059632;28;20048;-72
2023/06/26 03:36:06;;;;;;;1999.90;999.90;;;20.20;72.10;;;;;;5049055;28;20032;-73
2023/06/26 03:38:33;;;;;;;1999.90;999.90;;;19.80;72.40;;;;;;5059014;28;20017;-74
2023/06/26 03:41:01;;;;;;;1999.90;999.90;;;19.70;72.30;;;;;;5046729;28;20400;-72
2023/06/26 03:43:28;;;;;;;1999.90;999.90;;;19.70;72.80;;;;;;5050545;28;20032;-71
2023/06/26 03:45:55;;;;;;;1999.90;999.90;;;19.60;72.60;;;;;;5052211;28;20437;-72
2023/06/26 03:48:23;;;;;;;1999.90;999.90;;;19.40;73.20;;;;;;5057697;28;20032;-71
2023/06/26 03:50:50;;;;;;;1999.90;999.90;;;19.40;72.90;;;;;;5056171;28;20537;-73
2023/06/26 03:53:17;;;;;;;1999.90;999.90;;;19.30;73.30;;;;;;5059643;28;20032;-74
2023/06/26 03:55:45;;;;;;;1999.90;999.90;;;19.30;72.90;;;;;;5056606;28;20016;-73
2023/06/26 03:58:12;;;;;;;1999.90;999.90;;;19.20;73.30;;;;;;5053432;28;20151;-72
2023/06/26 04:00:40;;;;;;;1999.90;999.90;;;19.10;73.30;;;;;;5049339;28;20124;-72
2023/06/26 04:03:08;;;;;;;1999.90;999.90;;;18.90;73.30;;;;;;5061203;28;20422;-72
2023/06/26 04:05:36;;;;;;;1999.90;999.90;;;18.90;73.70;;;;;;5049670;28;20094;-73
2023/06/26 04:08:03;;;;;;;1999.90;999.90;;;18.80;73.80;;;;;;5055160;28;20085;-72
2023/06/26 04:10:30;;;;;;;1999.90;999.90;;;18.90;73.80;;;;;;5043993;28;20029;-71
2023/06/26 04:12:58;;;;;;;1999.90;999.90;;;18.90;74.00;;;;;;5051390;28;20044;-71
2023/06/26 04:15:25;;;;;;;1999.90;999.90;;;18.90;73.60;;;;;;5048465;28;20036;-72
2023/06/26 04:17:52;;;;;;;1999.90;999.90;;;18.80;73.60;;;;;;5046376;28;20519;-72
2023/06/26 04:20:20;;;;;;;1999.90;999.90;;;18.80;74.00;;;;;;5052492;28;20112;-73
2023/06/26 04:22:47;;;;;;;1999.90;999.90;;;18.70;74.10;;;;;;5056340;28;20036;-75
2023/06/26 04:25:14;;;;;;;1999.90;999.90;;;18.70;73.90;;;;;;5059265;28;20383;-70
2023/06/26 04:27:42;;;;;;;1999.90;999.90;;;18.60;74.10;;;;;;5054658;28;20041;-74
2023/06/26 04:30:12;;;;;;;1999.90;999.90;;;18.60;74.40;;;;;;5056850;28;20063;-73
2023/06/26 04:32:39;;;;;;;1999.90;999.90;;;18.50;74.60;;;;;;5050028;28;20032;-72
2023/06/26 04:35:06;;;;;;;1999.90;999.90;;;18.50;74.70;;;;;;5050360;28;20056;-74
2023/06/26 04:37:34;;;;;;;1999.90;999.90;;;18.40;74.90;;;;;;5052432;28;20044;-73
2023/06/26 04:40:02;;;;;;;1999.90;999.90;;;18.40;74.80;;;;;;5050994;28;20049;-73
2023/06/26 04:42:30;;;;;;;1999.90;999.90;;;18.40;75.40;;;;;;5057451;28;20028;-71
2023/06/26 04:44:58;;;;;;;1999.90;999.90;;;18.40;74.70;;;;;;5055793;28;20072;-72
2023/06/26 04:47:25;;;;;;;1999.90;999.90;;;18.40;74.10;;;;;;5047386;28;20025;-75
2023/06/26 04:49:52;;;;;;;1999.90;999.90;;;18.40;74.10;;;;;;5045428;28;20041;-71
2023/06/26 04:52:20;;;;;;;1999.90;999.90;;;18.30;73.30;;;;;;5051548;28;20025;-73
2023/06/26 04:54:47;;;;;;;1999.90;999.90;;;18.30;73.20;;;;;;5064334;28;20387;-71
2023/06/26 04:57:15;;;;;;;1999.90;999.90;;;18.30;73.20;;;;;;5047606;28;20029;-73
2023/06/26 04:59:42;;;;;;;1999.90;999.90;;;18.30;73.00;;;;;;5050861;28;20079;-71
2023/06/26 05:02:10;;;;;;;1999.90;999.90;;;18.20;72.70;;;;;;5055189;28;20044;-71
2023/06/26 05:04:37;;;;;;;1999.90;999.90;;;18.20;73.00;;;;;;5051053;28;20067;-71
2023/06/26 05:07:05;;;;;;;1999.90;999.90;;;18.10;73.70;;;;;;5051944;28;20033;-71
2023/06/26 05:09:32;;;;;;;1999.90;999.90;;;18.10;73.80;;;;;;5053882;28;20052;-69
2023/06/26 05:12:00;;;;;;;1999.90;999.90;;;18.10;73.70;;;;;;5064385;28;20758;-72
2023/06/26 05:14:27;;;;;;;1999.90;999.90;;;18.10;73.80;;;;;;5062621;28;20024;-70
2023/06/26 05:16:54;;;;;;;1999.90;999.90;;;18.10;73.10;;;;;;5053907;28;20174;-71
2023/06/26 05:19:22;;;;;;;1999.90;999.90;;;18.10;73.20;;;;;;5053479;28;20126;-70
2023/06/26 05:21:53;;;;;;;1999.90;999.90;;;18.00;73.80;;;;;;5058992;28;20033;-73
2023/06/26 05:24:23;;;;;;;1999.90;999.90;;;18.00;74.10;;;;;;5050849;28;20029;-71
2023/06/26 05:26:51;;;;;;;1999.90;999.90;;;18.00;73.60;;;;;;5055906;28;20493;-71
2023/06/26 05:29:19;;;;;;;1999.90;999.90;;;17.90;73.40;;;;;;5061825;28;20464;-71
2023/06/26 05:31:47;;;;;;;1999.90;999.90;;;17.90;73.50;;;;;;5054179;28;20033;-70
2023/06/26 05:34:15;;;;;;;1999.90;999.90;;;17.90;73.70;;;;;;5053906;28;20022;-71
2023/06/26 05:36:43;;;;;;;1999.90;999.90;;;17.80;73.70;;;;;;5059653;28;20029;-71
2023/06/26 05:39:11;;;;;;;1999.90;999.90;;;17.80;73.50;;;;;;5052119;28;20028;-72
2023/06/26 05:41:41;;;;;;;1999.90;999.90;;;17.80;73.80;;;;;;5057591;28;20036;-71
2023/06/26 05:44:08;;;;;;;1999.90;999.90;;;17.80;73.40;;;;;;5060791;28;20025;-70
2023/06/26 05:46:35;;;;;;;1999.90;999.90;;;17.80;73.40;;;;;;5054951;28;20029;-71
2023/06/26 05:49:03;;;;;;;1999.90;999.90;;;17.70;73.60;;;;;;5058927;28;20049;-72
2023/06/26 05:51:31;;;;;;;1999.90;999.90;;;17.70;74.10;;;;;;5054477;28;20033;-71
2023/06/26 05:53:58;;;;;;;1999.90;999.90;;;17.60;73.40;;;;;;5053091;28;20021;-71
2023/06/26 05:56:26;;;;;;;1999.90;999.90;;;17.60;73.90;;;;;;5055558;28;20054;-70
2023/06/26 05:58:54;;;;;;;1999.90;999.90;;;17.60;74.00;;;;;;5052439;28;20029;-72
2023/06/26 06:01:21;;;;;;;1999.90;999.90;;;17.60;73.70;;;;;;5060629;28;20518;-71
2023/06/26 06:03:49;;;;;;;1999.90;999.90;;;17.60;74.20;;;;;;5056339;28;20094;-71
2023/06/26 06:06:16;;;;;;;1999.90;999.90;;;17.60;74.20;;;;;;5046238;28;20532;-71
2023/06/26 06:08:43;;;;;;;1999.90;999.90;;;17.60;74.20;;;;;;5050546;28;20069;-71
2023/06/26 06:11:11;;;;;;;1999.90;999.90;;;17.60;74.20;;;;;;5057003;28;20025;-70
2023/06/26 06:13:38;;;;;;;1999.90;999.90;;;17.70;73.70;;;;;;5050694;28;20494;-70
2023/06/26 06:16:05;;;;;;;1999.90;999.90;;;17.80;73.60;;;;;;5049596;28;20036;-72
2023/06/26 06:18:33;;;;;;;1999.90;999.90;;;17.80;73.40;;;;;;5050496;28;20136;-71
2023/06/26 06:21:00;;;;;;;1999.90;999.90;;;17.80;73.60;;;;;;5043620;28;20147;-71
2023/06/26 06:23:28;;;;;;;1999.90;999.90;;;17.80;73.50;;;;;;5053010;28;20087;-71
2023/06/26 06:25:56;;;;;;;1999.90;999.90;;;17.80;73.80;;;;;;5046568;28;20036;-71
2023/06/26 06:28:23;;;;;;;1999.90;999.90;;;17.70;74.10;;;;;;5050724;28;20035;-73
2023/06/26 06:30:50;;;;;;;1999.90;999.90;;;17.60;74.30;;;;;;5051599;28;20521;-72
2023/06/26 06:33:18;;;;;;;1999.90;999.90;;;17.60;73.90;;;;;;5048508;28;20131;-72
2023/06/26 06:35:45;;;;;;;1999.90;999.90;;;17.40;73.90;;;;;;5050687;28;20086;-72
2023/06/26 06:38:15;;;;;;;1999.90;999.90;;;17.30;74.70;;;;;;5055320;28;20028;-71
2023/06/26 06:40:42;;;;;;;1999.90;999.90;;;17.10;74.40;;;;;;5047693;28;20443;-73
2023/06/26 06:43:10;;;;;;;1999.90;999.90;;;16.90;74.70;;;;;;5058015;28;20044;-71
2023/06/26 06:45:37;;;;;;;1999.90;999.90;;;16.70;75.00;;;;;;5058786;28;20025;-73
2023/06/26 06:48:06;;;;;;;1999.90;999.90;;;16.50;75.50;;;;;;5057191;28;20052;-72
2023/06/26 06:50:33;;;;;;;1999.90;999.90;;;16.40;75.90;;;;;;5054379;28;20451;-72
2023/06/26 06:53:00;;;;;;;1999.90;999.90;;;16.30;75.90;;;;;;5057855;28;20032;-72
2023/06/26 06:55:28;;;;;;;1999.90;999.90;;;16.20;76.10;;;;;;5058238;28;20032;-73
2023/06/26 06:57:55;;;;;;;1999.90;999.90;;;16.10;76.50;;;;;;5056849;28;20086;-73
2023/06/26 07:00:22;;;;;;;1999.90;999.90;;;16.10;76.50;;;;;;5047514;28;20025;-73
2023/06/26 07:02:50;;;;;;;1999.90;999.90;;;16.00;77.10;;;;;;5055704;28;20511;-71
2023/06/26 07:05:17;;;;;;;1999.90;999.90;;;15.90;77.40;;;;;;5052481;28;20561;-72
2023/06/26 07:07:44;;;;;;;1999.90;999.90;;;15.80;77.30;;;;;;5071672;28;20475;-72
2023/06/26 07:10:14;;;;;;;1999.90;999.90;;;15.70;77.60;;;;;;5060758;28;20079;-73
2023/06/26 07:12:41;;;;;;;1999.90;999.90;;;15.60;77.80;;;;;;5051672;28;20033;-71
2023/06/26 07:15:09;;;;;;;1999.90;999.90;;;15.50;78.20;;;;;;5058932;28;20040;-72
2023/06/26 07:17:38;;;;;;;1999.90;999.90;;;15.30;78.80;;;;;;5056388;28;20476;-73
2023/06/26 07:20:08;;;;;;;1999.90;999.90;;;15.20;78.70;;;;;;5069545;28;20041;-71
2023/06/26 07:22:36;;;;;;;1999.90;999.90;;;15.20;78.80;;;;;;5058034;28;20033;-72
2023/06/26 07:25:04;;;;;;;1999.90;999.90;;;15.10;79.10;;;;;;5056657;28;20020;-72
2023/06/26 07:27:33;;;;;;;1999.90;999.90;;;15.20;78.20;;;;;;5058024;28;20111;-71
2023/06/26 07:30:00;;;;;;;1999.90;999.90;;;15.20;78.40;;;;;;5053245;28;20021;-72
2023/06/26 07:32:27;;;;;;;1999.90;999.90;;;15.20;78.50;;;;;;5054962;28;20115;-71
2023/06/26 07:34:55;;;;;;;1999.90;999.90;;;15.10;78.80;;;;;;5051825;28;20032;-72
2023/06/26 07:37:22;;;;;;;1999.90;999.90;;;15.10;79.00;;;;;;5041241;28;20024;-71
2023/06/26 07:39:50;;;;;;;1999.90;999.90;;;15.10;78.50;;;;;;5055804;28;20502;-70
2023/06/26 07:42:18;;;;;;;1999.90;999.90;;;15.10;78.80;;;;;;5051439;28;20037;-71
2023/06/26 07:44:46;;;;;;;1999.90;999.90;;;15.00;78.80;;;;;;5055967;28;20025;-72
2023/06/26 07:47:13;;;;;;;1999.90;999.90;;;14.90;79.10;;;;;;5054684;28;20106;-71
2023/06/26 07:49:41;;;;;;;1999.90;999.90;;;14.80;79.20;;;;;;5054606;28;20041;-72
2023/06/26 07:52:11;;;;;;;1999.90;999.90;;;14.80;79.40;;;;;;5048987;28;20364;-72
2023/06/26 07:54:38;;;;;;;1999.90;999.90;;;14.70;79.50;;;;;;5051740;28;20079;-72
2023/06/26 07:57:11;;;;;;;1999.90;999.90;;;14.70;79.40;;;;;;5050470;28;20021;-71
2023/06/26 07:59:38;;;;;;;1999.90;999.90;;;14.60;79.40;;;;;;5052717;28;20045;-71
2023/06/26 08:02:06;;;;;;;1999.90;999.90;;;14.70;79.40;;;;;;5051416;28;20016;-71
2023/06/26 08:04:34;;;;;;;1999.90;999.90;;;14.70;79.30;;;;;;5061357;28;20380;-71
2023/06/26 08:07:03;;;;;;;1999.90;999.90;;;14.70;79.40;;;;;;5048480;28;20036;-71
2023/06/26 08:09:31;;;;;;;1999.90;999.90;;;14.60;79.40;;;;;;5046834;28;20033;-70
2023/06/26 08:11:59;;;;;;;1999.90;999.90;;;14.60;79.60;;;;;;5044773;28;20048;-70
2023/06/26 08:14:27;;;;;;;1999.90;999.90;;;14.60;79.70;;;;;;5045534;28;20020;-70
2023/06/26 08:16:55;;;;;;;1999.90;999.90;;;14.60;79.70;;;;;;5052256;28;20178;-71
2023/06/26 08:19:22;;;;;;;1999.90;999.90;;;14.60;79.60;;;;;;5047978;28;20131;-70
2023/06/26 08:21:49;;;;;;;1999.90;999.90;;;14.60;79.70;;;;;;5048642;28;20029;-70
2023/06/26 08:24:18;;;;;;;1999.90;999.90;;;14.60;80.40;;;;;;5051644;28;20385;-71
2023/06/26 08:26:48;;;;;;;1999.90;999.90;;;14.60;80.00;;;;;;5050694;28;20062;-72
2023/06/26 08:29:16;;;;;;;1999.90;999.90;;;14.60;80.20;;;;;;5052774;28;20476;-71
2023/06/26 08:31:44;;;;;;;1999.90;999.90;;;14.70;80.50;;;;;;5047733;28;20074;-72
2023/06/26 08:34:11;;;;;;;1999.90;999.90;;;14.70;80.70;;;;;;5045703;28;20036;-71
2023/06/26 08:36:38;;;;;;;1999.90;999.90;;;14.60;81.10;;;;;;5046051;28;20614;-72
2023/06/26 08:39:06;;;;;;;1999.90;999.90;;;14.60;81.30;;;;;;5052989;28;20044;-72
2023/06/26 08:41:33;;;;;;;1999.90;999.90;;;14.60;81.60;;;;;;5051671;28;20036;-71
2023/06/26 08:44:01;;;;;;;1999.90;999.90;;;14.50;82.00;;;;;;5050131;28;20037;-73
2023/06/26 08:46:29;;;;;;;1999.90;999.90;;;14.60;82.10;;;;;;5046226;28;20036;-71
2023/06/26 08:49:01;;;;;;;1999.90;999.90;;;14.60;82.10;;;;;;5053560;28;20032;-70
2023/06/26 08:51:30;;;;;;;1999.90;999.90;;;14.60;82.10;;;;;;5050167;28;20100;-70
2023/06/26 08:53:59;;;;;;;1999.90;999.90;;;14.50;82.30;;;;;;5053421;28;20028;-70
2023/06/26 08:56:45;;;;;;;1999.90;999.90;;;14.50;82.60;;;;;;5051618;28;20033;-71
2023/06/26 08:59:14;;;;;;;1999.90;999.90;;;14.40;82.70;;;;;;5060015;28;20032;-69
2023/06/26 09:01:42;;;;;;;1999.90;999.90;;;14.30;82.90;;;;;;5056177;28;20037;-71
2023/06/26 09:04:09;;;;;;;1999.90;999.90;;;14.40;82.90;;;;;;5055186;28;20178;-72
2023/06/26 09:06:37;;;;;;;1999.90;999.90;;;14.40;83.00;;;;;;5053878;28;20024;-70
2023/06/26 09:09:04;;;;;;;1999.90;999.90;;;14.40;83.00;;;;;;5048883;28;20118;-70
2023/06/26 09:11:32;;;;;;;1999.90;999.90;;;14.30;83.20;;;;;;5049285;28;20104;-70
2023/06/26 09:13:59;;;;;;;1999.90;999.90;;;14.20;83.40;;;;;;5050165;28;20021;-70
2023/06/26 09:16:27;;;;;;;1999.90;999.90;;;14.20;83.50;;;;;;5040942;28;20021;-71
2023/06/26 09:18:56;;;;;;;1999.90;999.90;;;14.30;83.60;;;;;;5053387;28;20029;-72
2023/06/26 09:21:26;;;;;;;1999.90;999.90;;;14.20;83.60;;;;;;5052652;28;20150;-72
2023/06/26 09:23:54;;;;;;;1999.90;999.90;;;14.10;84.00;;;;;;5052176;28;20057;-69
2023/06/26 09:26:23;;;;;;;1999.90;999.90;;;14.10;84.50;;;;;;5053722;28;20029;-70
2023/06/26 09:28:51;;;;;;;1999.90;999.90;;;14.10;84.60;;;;;;5061172;28;20512;-70
2023/06/26 09:31:20;;;;;;;1999.90;999.90;;;14.10;84.60;;;;;;5047513;28;20472;-70
2023/06/26 09:33:49;;;;;;;1999.90;999.90;;;14.00;85.00;;;;;;5052097;28;20773;-70
2023/06/26 09:36:21;;;;;;;1999.90;999.90;;;14.00;84.90;;;;;;5049761;28;20033;-71
2023/06/26 09:38:49;;;;;;;1999.90;999.90;;;14.10;85.00;;;;;;5042039;28;20159;-71
2023/06/26 09:41:19;;;;;;;1999.90;999.90;;;14.20;84.80;;;;;;5049278;28;20036;-70
2023/06/26 09:43:49;;;;;;;1999.90;999.90;;;14.30;84.50;;;;;;5044289;28;20108;-69
2023/06/26 09:46:27;;;;;;;1999.90;999.90;;;14.30;84.50;;;;;;5039013;28;20033;-70
2023/06/26 09:49:13;;;;;;;1999.90;999.90;;;14.30;84.70;;;;;;5050430;28;20170;-70
2023/06/26 09:51:42;;;;;;;1999.90;999.90;;;14.20;84.90;;;;;;5057382;28;20044;-70
2023/06/26 09:54:10;;;;;;;1999.90;999.90;;;14.20;84.90;;;;;;5056926;28;20028;-70
2023/06/26 09:56:37;;;;;;;1999.90;999.90;;;14.20;84.80;;;;;;5052555;28;20552;-70
2023/06/26 09:59:06;;;;;;;1999.90;999.90;;;14.20;85.10;;;;;;5056730;28;20378;-70
2023/06/26 10:01:37;;;;;;;1999.90;999.90;;;14.10;85.30;;;;;;5050829;28;20036;-70
2023/06/26 10:04:04;;;;;;;1999.90;999.90;;;14.10;85.40;;;;;;5055801;28;20127;-69
2023/06/26 10:06:39;;;;;;;1999.90;999.90;;;14.10;85.30;;;;;;5049504;28;20054;-70
2023/06/26 10:09:07;;;;;;;1999.90;999.90;;;14.00;85.50;;;;;;5059874;28;20155;-70
2023/06/26 10:12:08;;;;;;;1999.90;999.90;;;14.10;85.60;;;;;;5046523;28;20029;-70
2023/06/26 10:14:37;;;;;;;1999.90;999.90;;;14.20;85.50;;;;;;5057669;28;20476;-70
2023/06/26 10:17:08;;;;;;;1999.90;999.90;;;14.10;85.60;;;;;;5050269;28;20032;-70
2023/06/26 10:19:38;;;;;;;1999.90;999.90;;;14.00;86.00;;;;;;5063728;28;20083;-69
2023/06/26 10:22:06;;;;;;;1999.90;999.90;;;13.90;86.20;;;;;;5057541;28;20138;-70
2023/06/26 10:24:36;;;;;;;1999.90;999.90;;;13.90;86.40;;;;;;5051603;28;20149;-70
2023/06/26 10:27:11;;;;;;;1999.90;999.90;;;13.70;86.70;;;;;;5049979;28;20115;-69
2023/06/26 10:29:39;;;;;;;1999.90;999.90;;;13.70;87.00;;;;;;5058183;28;20028;-70
2023/06/26 10:32:07;;;;;;;1999.90;999.90;;;13.70;87.10;;;;;;5054306;28;20024;-72
2023/06/26 10:34:35;;;;;;;1999.90;999.90;;;13.70;87.40;;;;;;5052040;28;20055;-71
2023/06/26 10:37:04;;;;;;;1999.90;999.90;;;13.70;87.60;;;;;;5054496;28;20021;-71
2023/06/26 10:39:54;;;;;;;1999.90;999.90;;;13.70;87.50;;;;;;5058167;28;20098;-73
2023/06/26 10:42:37;;;;;;;1999.90;999.90;;;13.70;87.60;;;;;;5055090;28;20029;-71
2023/06/26 10:45:33;;;;;;;1999.90;999.90;;;13.60;87.80;;;;;;5048963;28;20018;-71
2023/06/26 10:48:05;;;;;;;1999.90;999.90;;;13.60;88.00;;;;;;5054139;28;20032;-70
2023/06/26 10:50:37;;;;;;;1999.90;999.90;;;13.60;88.10;;;;;;5055708;28;20044;-71
2023/06/26 10:53:20;;;;;;;1999.90;999.90;;;13.60;88.10;;;;;;5060715;28;20035;-71
2023/06/26 10:55:59;;;;;;;1999.90;999.90;;;13.60;88.20;;;;;;5052413;28;20029;-71
2023/06/26 10:58:41;;;;;;;1999.90;999.90;;;13.50;88.70;;;;;;5057077;28;20043;-72
2023/06/26 11:01:27;;;;;;;1999.90;999.90;;;13.40;88.60;;;;;;5052260;28;20529;-72
2023/06/26 11:04:04;;;;;;;1999.90;999.90;;;13.30;89.20;;;;;;5050818;28;20076;-71
2023/06/26 11:06:32;;;;;;;1999.90;999.90;;;13.20;89.30;;;;;;5052899;28;20036;-72
2023/06/26 11:09:06;;;;;;;1999.90;999.90;;;13.00;89.90;;;;;;5053620;28;20373;-73
2023/06/26 11:12:04;;;;;;;1999.90;999.90;;;12.90;90.00;;;;;;5055221;28;20094;-72
2023/06/26 11:14:33;;;;;;;1999.90;999.90;;;12.90;90.20;;;;;;5043978;28;20458;-72
2023/06/26 11:17:03;;;;;;;1999.90;999.90;;;12.80;90.40;;;;;;5053728;28;20041;-73
2023/06/26 11:19:31;;;;;;;1999.90;999.90;;;12.70;90.40;;;;;;5048725;28;20017;-70
2023/06/26 11:22:05;;;;;;;1999.90;999.90;;;12.60;90.60;;;;;;5053217;28;20120;-72
2023/06/26 11:24:36;;;;;;;1999.90;999.90;;;12.50;90.70;;;;;;5045550;28;20028;-72
2023/06/26 11:27:05;;;;;;;1999.90;999.90;;;12.40;91.10;;;;;;5052503;28;20039;-71
2023/06/26 11:29:33;;;;;;;1999.90;999.90;;;12.50;90.90;;;;;;5047844;28;20033;-71
2023/06/26 11:32:02;;;;;;;1999.90;999.90;;;12.50;91.00;;;;;;5051061;28;20029;-71
2023/06/26 11:34:33;;;;;;;1999.90;999.90;;;12.40;91.00;;;;;;5047318;28;20029;-71
2023/06/26 11:37:01;;;;;;;1999.90;999.90;;;12.30;91.10;;;;;;5049086;28;20063;-71
2023/06/26 11:39:28;;;;;;;1999.90;999.90;;;12.20;91.30;;;;;;5052509;28;20025;-71
2023/06/26 11:42:00;;;;;;;1999.90;999.90;;;12.10;91.60;;;;;;5048288;28;20037;-71
2023/06/26 11:44:31;;;;;;;1999.90;999.90;;;12.20;91.70;;;;;;5043381;28;20025;-72
2023/06/26 11:46:59;;;;;;;1999.90;999.90;;;12.20;91.70;;;;;;5058009;28;20028;-72
2023/06/26 11:49:28;;;;;;;1999.90;999.90;;;12.30;91.60;;;;;;5059824;28;20068;-71
2023/06/26 11:51:56;;;;;;;1999.90;999.90;;;12.20;91.70;;;;;;5048618;28;20490;-72
2023/06/26 11:54:27;;;;;;;1999.90;999.90;;;12.10;91.70;;;;;;5041765;28;20083;-70
2023/06/26 11:57:00;;;;;;;1999.90;999.90;;;11.90;91.90;;;;;;5044991;28;20475;-71
2023/06/26 11:59:40;;;;;;;1999.90;999.90;;;11.80;92.30;;;;;;5051618;28;20071;-70
2023/06/26 12:02:12;;;;;;;1999.90;999.90;;;11.70;92.60;;;;;;5057785;28;20025;-71
2023/06/26 12:04:45;;;;;;;1999.90;999.90;;;11.60;92.70;;;;;;5049771;28;20049;-70
2023/06/26 12:07:14;;;;;;;1999.90;999.90;;;11.50;92.90;;;;;;5055217;28;20120;-71
2023/06/26 12:09:46;;;;;;;1999.90;999.90;;;11.60;93.00;;;;;;5059256;28;20024;-69